createdAt,value
2023-05-03T00:03:28.298Z,60.10
2023-05-03T00:11:33.751Z,59.90
2023-05-03T00:19:42.811Z,61.00
2023-05-03T00:27:57.839Z,59.30
2023-05-03T00:36:10.796Z,59.00
2023-05-03T00:44:16.492Z,58.00
2023-05-03T00:52:24.588Z,57.10
2023-05-03T01:00:30.022Z,57.10
2023-05-03T01:08:44.041Z,57.30
2023-05-03T01:16:54.425Z,57.10
2023-05-03T01:25:08.667Z,56.50
2023-05-03T01:33:23.533Z,56.50
2023-05-03T01:41:32.267Z,56.00
2023-05-03T01:49:37.858Z,56.40
2023-05-03T01:57:45.954Z,55.90
2023-05-03T02:05:51.898Z,55.90
2023-05-03T02:13:59.854Z,55.30
2023-05-03T02:22:05.831Z,54.70
2023-05-03T02:30:15.068Z,54.20
2023-05-03T02:38:22.362Z,54.30
2023-05-03T02:46:31.357Z,54.10
2023-05-03T02:54:36.808Z,54.60
2023-05-03T03:02:51.259Z,55.00
2023-05-03T03:10:56.883Z,55.10
2023-05-03T03:19:05.016Z,54.90
2023-05-03T03:27:10.546Z,54.60
2023-05-03T03:35:19.921Z,54.90
2023-05-03T03:43:25.416Z,56.10
2023-05-03T03:51:34.181Z,55.30
2023-05-03T03:59:39.676Z,55.20
2023-05-03T04:07:47.847Z,55.20
2023-05-03T04:15:58.681Z,54.30
2023-05-03T04:24:10.200Z,54.60
2023-05-03T04:32:17.222Z,55.00
2023-05-03T04:40:25.356Z,55.70
2023-05-03T04:48:39.672Z,55.10
2023-05-03T04:56:47.892Z,55.20
2023-05-03T05:04:56.787Z,54.60
2023-05-03T05:13:05.059Z,54.20
2023-05-03T05:21:11.889Z,53.40
2023-05-03T05:29:20.214Z,53.10
2023-05-03T05:37:26.634Z,52.50
2023-05-03T05:45:38.323Z,52.80
2023-05-03T05:53:44.429Z,53.70
2023-05-03T06:01:52.821Z,55.40
2023-05-03T06:10:00.232Z,56.00
2023-05-03T06:18:15.792Z,57.50
2023-05-03T06:26:23.763Z,59.10
2023-05-03T06:34:32.918Z,61.30
2023-05-03T06:42:38.612Z,59.70
2023-05-03T06:50:51.019Z,57.30
2023-05-03T06:58:56.629Z,56.70
2023-05-03T07:07:04.795Z,58.10
2023-05-03T07:15:11.420Z,55.20
2023-05-03T07:23:19.623Z,54.90
2023-05-03T07:31:26.741Z,55.50
2023-05-03T07:39:34.686Z,51.90
2023-05-03T07:47:40.437Z,51.30
2023-05-03T07:55:48.581Z,49.30
2023-05-03T08:03:54.185Z,46.50
2023-05-03T08:12:02.637Z,46.40
2023-05-03T08:20:09.764Z,46.40
2023-05-03T08:28:18.144Z,46.00
2023-05-03T08:36:23.565Z,46.70
2023-05-03T08:44:33.783Z,46.80
2023-05-03T08:52:39.301Z,45.10
2023-05-03T09:00:47.616Z,46.10
2023-05-03T09:08:53.062Z,45.10
2023-05-03T09:17:17.812Z,44.20
2023-05-03T09:25:23.206Z,44.00
2023-05-03T09:33:35.252Z,44.90
2023-05-03T09:41:41.082Z,44.70
2023-05-03T09:49:49.480Z,42.50
2023-05-03T09:57:59.128Z,43.10
2023-05-03T10:06:09.955Z,43.70
2023-05-03T10:14:15.948Z,42.30
2023-05-03T10:22:24.401Z,42.00
2023-05-03T10:30:35.018Z,42.10
2023-05-03T10:38:43.215Z,41.20
2023-05-03T10:46:49.128Z,40.90
2023-05-03T10:54:57.339Z,39.50
2023-05-03T11:03:29.924Z,39.40
2023-05-03T11:11:42.647Z,39.30
2023-05-03T11:19:48.119Z,39.80
2023-05-03T11:27:56.317Z,32.00
2023-05-03T11:36:03.953Z,31.50
2023-05-03T11:44:17.821Z,32.90
2023-05-03T11:52:25.455Z,34.00
2023-05-03T12:00:34.108Z,31.00
2023-05-03T12:08:42.468Z,27.50
2023-05-03T12:16:56.929Z,26.10
2023-05-03T12:25:04.297Z,26.40
2023-05-03T12:33:15.128Z,25.80
2023-05-03T12:41:52.353Z,25.30
2023-05-03T12:49:52.118Z,24.40
2023-05-03T12:58:30.419Z,24.20
2023-05-03T13:06:26.214Z,24.80
2023-05-03T13:14:32.914Z,28.30
2023-05-03T13:22:41.033Z,30.40
2023-05-03T13:30:47.267Z,31.50
2023-05-03T13:38:55.465Z,32.50
2023-05-03T13:47:01.749Z,33.70
2023-05-03T13:55:10.862Z,35.30
2023-05-03T14:03:16.521Z,36.40
2023-05-03T14:11:24.979Z,38.00
2023-05-03T14:19:30.575Z,38.90
2023-05-03T14:27:38.624Z,40.00
2023-05-03T14:35:44.249Z,41.00
2023-05-03T14:43:52.676Z,41.20
2023-05-03T14:52:00.167Z,42.20
2023-05-03T15:00:14.433Z,42.90
2023-05-03T15:08:22.465Z,42.90
2023-05-03T15:16:30.555Z,43.50
2023-05-03T15:24:36.100Z,44.20
2023-05-03T15:32:44.362Z,44.20
2023-05-03T15:40:50.021Z,43.70
2023-05-03T15:48:58.175Z,44.50
2023-05-03T15:57:05.225Z,43.80
2023-05-03T16:05:14.216Z,44.40
2023-05-03T16:13:19.780Z,43.70
2023-05-03T16:21:27.833Z,44.90
2023-05-03T16:29:39.229Z,44.70
2023-05-03T16:37:47.409Z,46.40
2023-05-03T16:46:00.503Z,46.40
2023-05-03T16:54:08.941Z,46.10
2023-05-03T17:02:14.448Z,45.70
2023-05-03T17:10:22.678Z,47.40
2023-05-03T17:18:28.743Z,48.70
2023-05-03T17:26:37.142Z,48.60
2023-05-03T17:34:42.887Z,49.60
2023-05-03T17:42:51.887Z,49.90
2023-05-03T17:51:03.623Z,50.00
2023-05-03T17:59:12.108Z,49.40
2023-05-03T18:07:17.877Z,49.10
2023-05-03T18:15:26.309Z,49.30
2023-05-03T18:23:31.709Z,48.60
2023-05-03T18:31:39.914Z,48.70
2023-05-03T18:39:45.731Z,48.30
2023-05-03T18:47:53.847Z,47.80
2023-05-03T18:55:59.914Z,48.20
2023-05-03T19:04:08.618Z,47.40
2023-05-03T19:12:14.307Z,47.30
2023-05-03T19:20:22.435Z,47.00
2023-05-03T19:28:28.196Z,45.60
2023-05-03T19:36:36.290Z,42.80
2023-05-03T19:44:42.162Z,43.30
2023-05-03T19:52:55.591Z,45.10
2023-05-03T20:01:01.092Z,46.20
2023-05-03T20:09:09.508Z,46.30
2023-05-03T20:17:15.041Z,47.40
2023-05-03T20:25:26.037Z,47.80
2023-05-03T20:33:31.622Z,49.60
2023-05-03T20:41:39.807Z,52.30
2023-05-03T20:49:45.301Z,55.10
2023-05-03T20:57:53.365Z,56.20
2023-05-03T21:05:59.952Z,57.90
2023-05-03T21:14:08.091Z,58.70
2023-05-03T21:22:13.657Z,58.30
2023-05-03T21:30:22.520Z,57.50
2023-05-03T21:38:28.606Z,57.70
2023-05-03T21:46:36.600Z,61.60
2023-05-03T21:54:42.048Z,66.50
2023-05-03T22:02:50.475Z,68.70
2023-05-03T22:10:56.421Z,69.80
2023-05-03T22:19:04.536Z,69.00
2023-05-03T22:27:09.989Z,69.00
2023-05-03T22:35:18.492Z,70.20
2023-05-03T22:43:23.860Z,69.30
2023-05-03T22:51:32.029Z,69.20
2023-05-03T22:59:37.919Z,68.90
2023-05-03T23:07:46.231Z,68.00
2023-05-03T23:15:51.824Z,67.90
2023-05-03T23:24:02.990Z,68.50
2023-05-03T23:32:08.591Z,69.40
2023-05-03T23:40:17.322Z,68.20
2023-05-03T23:48:22.741Z,71.90
2023-05-03T23:56:30.955Z,71.70
